sensor_id;sensor_type;location;lat;lon;timestamp;temperature;humidity
37322;DHT22;23697;48.684;9.032;2022-09-09T00:00:28;14.60;75.30
37322;DHT22;23697;48.684;9.032;2022-09-09T00:03:02;14.70;75.60
37322;DHT22;23697;48.684;9.032;2022-09-09T00:05:38;14.60;75.10
37322;DHT22;23697;48.684;9.032;2022-09-09T00:08:09;14.70;75.10
37322;DHT22;23697;48.684;9.032;2022-09-09T00:10:40;14.70;75.80
37322;DHT22;23697;48.684;9.032;2022-09-09T00:13:15;14.70;75.00
37322;DHT22;23697;48.684;9.032;2022-09-09T00:15:54;14.70;75.50
37322;DHT22;23697;48.684;9.032;2022-09-09T00:18:27;14.70;75.60
37322;DHT22;23697;48.684;9.032;2022-09-09T00:21:00;14.80;75.30
37322;DHT22;23697;48.684;9.032;2022-09-09T00:23:31;14.80;75.00
37322;DHT22;23697;48.684;9.032;2022-09-09T00:26:04;14.80;75.20
37322;DHT22;23697;48.684;9.032;2022-09-09T00:28:47;14.80;75.20
37322;DHT22;23697;48.684;9.032;2022-09-09T00:31:23;14.80;74.40
37322;DHT22;23697;48.684;9.032;2022-09-09T00:33:53;14.90;74.40
37322;DHT22;23697;48.684;9.032;2022-09-09T00:36:23;15.00;74.20
37322;DHT22;23697;48.684;9.032;2022-09-09T00:38:53;15.00;74.20
37322;DHT22;23697;48.684;9.032;2022-09-09T00:41:24;15.10;74.20
37322;DHT22;23697;48.684;9.032;2022-09-09T00:43:57;15.10;74.20
37322;DHT22;23697;48.684;9.032;2022-09-09T00:46:45;15.10;74.50
37322;DHT22;23697;48.684;9.032;2022-09-09T00:49:22;15.10;74.90
37322;DHT22;23697;48.684;9.032;2022-09-09T00:52:02;15.10;74.90
37322;DHT22;23697;48.684;9.032;2022-09-09T00:54:44;15.10;74.70
37322;DHT22;23697;48.684;9.032;2022-09-09T00:57:24;15.10;74.30
37322;DHT22;23697;48.684;9.032;2022-09-09T00:59:55;15.10;74.40
37322;DHT22;23697;48.684;9.032;2022-09-09T01:02:32;15.10;73.60
37322;DHT22;23697;48.684;9.032;2022-09-09T01:05:04;15.10;74.00
37322;DHT22;23697;48.684;9.032;2022-09-09T01:07:33;15.20;74.70
37322;DHT22;23697;48.684;9.032;2022-09-09T01:10:03;15.10;75.20
37322;DHT22;23697;48.684;9.032;2022-09-09T01:12:38;15.10;75.00
37322;DHT22;23697;48.684;9.032;2022-09-09T01:15:11;15.10;74.60
37322;DHT22;23697;48.684;9.032;2022-09-09T01:17:49;15.10;75.30
37322;DHT22;23697;48.684;9.032;2022-09-09T01:20:20;15.00;75.00
37322;DHT22;23697;48.684;9.032;2022-09-09T01:23:07;15.00;75.30
37322;DHT22;23697;48.684;9.032;2022-09-09T01:26:10;14.90;74.80
37322;DHT22;23697;48.684;9.032;2022-09-09T01:28:39;15.00;74.80
37322;DHT22;23697;48.684;9.032;2022-09-09T01:31:09;15.00;74.60
37322;DHT22;23697;48.684;9.032;2022-09-09T01:33:38;15.00;75.10
37322;DHT22;23697;48.684;9.032;2022-09-09T01:36:08;15.00;75.30
37322;DHT22;23697;48.684;9.032;2022-09-09T01:38:36;15.00;75.50
37322;DHT22;23697;48.684;9.032;2022-09-09T01:41:05;15.00;75.50
37322;DHT22;23697;48.684;9.032;2022-09-09T01:43:32;14.90;75.30
37322;DHT22;23697;48.684;9.032;2022-09-09T01:46:00;14.80;75.10
37322;DHT22;23697;48.684;9.032;2022-09-09T01:48:27;14.80;75.50
37322;DHT22;23697;48.684;9.032;2022-09-09T01:50:54;14.80;75.90
37322;DHT22;23697;48.684;9.032;2022-09-09T01:53:22;14.70;75.90
37322;DHT22;23697;48.684;9.032;2022-09-09T01:56:07;14.70;75.90
37322;DHT22;23697;48.684;9.032;2022-09-09T01:58:47;14.60;76.30
37322;DHT22;23697;48.684;9.032;2022-09-09T02:01:25;14.60;76.50
37322;DHT22;23697;48.684;9.032;2022-09-09T02:03:57;14.60;76.80
37322;DHT22;23697;48.684;9.032;2022-09-09T02:06:28;14.60;77.10
37322;DHT22;23697;48.684;9.032;2022-09-09T02:08:58;14.50;77.20
37322;DHT22;23697;48.684;9.032;2022-09-09T02:11:27;14.50;77.00
37322;DHT22;23697;48.684;9.032;2022-09-09T02:14:00;14.50;77.20
37322;DHT22;23697;48.684;9.032;2022-09-09T02:16:31;14.40;77.30
37322;DHT22;23697;48.684;9.032;2022-09-09T02:19:02;14.40;77.50
37322;DHT22;23697;48.684;9.032;2022-09-09T02:21:33;14.40;77.50
37322;DHT22;23697;48.684;9.032;2022-09-09T02:24:04;14.20;78.00
37322;DHT22;23697;48.684;9.032;2022-09-09T02:26:34;14.10;78.50
37322;DHT22;23697;48.684;9.032;2022-09-09T02:29:08;14.00;78.40
37322;DHT22;23697;48.684;9.032;2022-09-09T02:31:37;14.00;78.70
37322;DHT22;23697;48.684;9.032;2022-09-09T02:34:05;13.90;79.00
37322;DHT22;23697;48.684;9.032;2022-09-09T02:36:36;13.90;79.10
37322;DHT22;23697;48.684;9.032;2022-09-09T02:39:05;13.80;79.30
37322;DHT22;23697;48.684;9.032;2022-09-09T02:41:37;13.80;79.60
37322;DHT22;23697;48.684;9.032;2022-09-09T02:44:10;13.80;79.60
37322;DHT22;23697;48.684;9.032;2022-09-09T02:46:51;13.80;79.70
37322;DHT22;23697;48.684;9.032;2022-09-09T02:49:27;13.80;79.70
37322;DHT22;23697;48.684;9.032;2022-09-09T02:52:00;13.70;79.80
37322;DHT22;23697;48.684;9.032;2022-09-09T02:54:28;13.60;80.10
37322;DHT22;23697;48.684;9.032;2022-09-09T02:57:01;13.60;80.20
37322;DHT22;23697;48.684;9.032;2022-09-09T02:59:31;13.60;80.70
37322;DHT22;23697;48.684;9.032;2022-09-09T03:01:58;13.60;80.80
37322;DHT22;23697;48.684;9.032;2022-09-09T03:04:25;13.60;81.10
37322;DHT22;23697;48.684;9.032;2022-09-09T03:06:52;13.50;81.30
37322;DHT22;23697;48.684;9.032;2022-09-09T03:09:18;13.50;81.30
37322;DHT22;23697;48.684;9.032;2022-09-09T03:11:45;13.40;81.40
37322;DHT22;23697;48.684;9.032;2022-09-09T03:14:12;13.40;81.40
37322;DHT22;23697;48.684;9.032;2022-09-09T03:16:40;13.40;81.40
37322;DHT22;23697;48.684;9.032;2022-09-09T03:19:08;13.50;81.40
37322;DHT22;23697;48.684;9.032;2022-09-09T03:21:35;13.40;81.30
37322;DHT22;23697;48.684;9.032;2022-09-09T03:24:02;13.50;81.30
37322;DHT22;23697;48.684;9.032;2022-09-09T03:26:29;13.50;81.20
37322;DHT22;23697;48.684;9.032;2022-09-09T03:28:57;13.50;81.20
37322;DHT22;23697;48.684;9.032;2022-09-09T03:31:26;13.60;81.10
37322;DHT22;23697;48.684;9.032;2022-09-09T03:33:56;13.50;81.20
37322;DHT22;23697;48.684;9.032;2022-09-09T03:36:24;13.50;81.30
37322;DHT22;23697;48.684;9.032;2022-09-09T03:38:51;13.60;81.30
37322;DHT22;23697;48.684;9.032;2022-09-09T03:41:19;13.60;81.40
37322;DHT22;23697;48.684;9.032;2022-09-09T03:43:50;13.60;81.20
37322;DHT22;23697;48.684;9.032;2022-09-09T03:46:17;13.50;81.20
37322;DHT22;23697;48.684;9.032;2022-09-09T03:48:44;13.50;81.30
37322;DHT22;23697;48.684;9.032;2022-09-09T03:51:13;13.40;81.20
37322;DHT22;23697;48.684;9.032;2022-09-09T03:53:41;13.50;81.40
37322;DHT22;23697;48.684;9.032;2022-09-09T03:56:09;13.40;81.30
37322;DHT22;23697;48.684;9.032;2022-09-09T03:58:36;13.50;81.30
37322;DHT22;23697;48.684;9.032;2022-09-09T04:01:05;13.50;81.40
37322;DHT22;23697;48.684;9.032;2022-09-09T04:03:34;13.50;81.30
37322;DHT22;23697;48.684;9.032;2022-09-09T04:06:02;13.60;81.40
37322;DHT22;23697;48.684;9.032;2022-09-09T04:08:31;13.50;81.50
37322;DHT22;23697;48.684;9.032;2022-09-09T04:10:58;13.50;81.70
37322;DHT22;23697;48.684;9.032;2022-09-09T04:13:28;13.50;81.60
37322;DHT22;23697;48.684;9.032;2022-09-09T04:15:57;13.60;81.70
37322;DHT22;23697;48.684;9.032;2022-09-09T04:18:25;13.60;81.90
37322;DHT22;23697;48.684;9.032;2022-09-09T04:20:53;13.60;81.90
37322;DHT22;23697;48.684;9.032;2022-09-09T04:23:23;13.50;82.10
37322;DHT22;23697;48.684;9.032;2022-09-09T04:25:52;13.60;82.20
37322;DHT22;23697;48.684;9.032;2022-09-09T04:28:22;13.60;82.30
37322;DHT22;23697;48.684;9.032;2022-09-09T04:30:49;13.60;82.20
37322;DHT22;23697;48.684;9.032;2022-09-09T04:33:16;13.70;81.90
37322;DHT22;23697;48.684;9.032;2022-09-09T04:35:45;13.80;81.90
37322;DHT22;23697;48.684;9.032;2022-09-09T04:38:12;13.90;81.70
37322;DHT22;23697;48.684;9.032;2022-09-09T04:40:43;13.80;81.50
37322;DHT22;23697;48.684;9.032;2022-09-09T04:43:12;13.90;81.40
37322;DHT22;23697;48.684;9.032;2022-09-09T04:45:40;13.90;81.10
37322;DHT22;23697;48.684;9.032;2022-09-09T04:48:07;13.90;80.70
37322;DHT22;23697;48.684;9.032;2022-09-09T04:50:35;13.90;80.80
37322;DHT22;23697;48.684;9.032;2022-09-09T04:53:02;13.90;80.80
37322;DHT22;23697;48.684;9.032;2022-09-09T04:55:30;13.90;80.80
37322;DHT22;23697;48.684;9.032;2022-09-09T04:57:57;13.90;80.50
37322;DHT22;23697;48.684;9.032;2022-09-09T05:00:25;13.90;80.90
37322;DHT22;23697;48.684;9.032;2022-09-09T05:02:52;14.00;80.80
37322;DHT22;23697;48.684;9.032;2022-09-09T05:05:19;14.00;80.90
37322;DHT22;23697;48.684;9.032;2022-09-09T05:07:46;14.00;80.90
37322;DHT22;23697;48.684;9.032;2022-09-09T05:10:13;14.00;80.60
37322;DHT22;23697;48.684;9.032;2022-09-09T05:12:42;14.10;80.90
37322;DHT22;23697;48.684;9.032;2022-09-09T05:15:09;14.10;80.60
37322;DHT22;23697;48.684;9.032;2022-09-09T05:17:38;14.10;80.60
37322;DHT22;23697;48.684;9.032;2022-09-09T05:20:07;14.10;80.70
37322;DHT22;23697;48.684;9.032;2022-09-09T05:22:34;14.20;80.70
37322;DHT22;23697;48.684;9.032;2022-09-09T05:25:01;14.20;80.80
37322;DHT22;23697;48.684;9.032;2022-09-09T05:27:29;14.20;80.50
37322;DHT22;23697;48.684;9.032;2022-09-09T05:30:09;14.30;80.20
37322;DHT22;23697;48.684;9.032;2022-09-09T05:32:37;14.30;80.20
37322;DHT22;23697;48.684;9.032;2022-09-09T05:35:04;14.40;80.10
37322;DHT22;23697;48.684;9.032;2022-09-09T05:37:31;14.40;80.20
37322;DHT22;23697;48.684;9.032;2022-09-09T05:39:58;14.50;79.90
37322;DHT22;23697;48.684;9.032;2022-09-09T05:42:30;14.50;79.90
37322;DHT22;23697;48.684;9.032;2022-09-09T05:44:57;14.60;80.10
37322;DHT22;23697;48.684;9.032;2022-09-09T05:47:24;14.60;80.00
37322;DHT22;23697;48.684;9.032;2022-09-09T05:49:54;14.60;80.20
37322;DHT22;23697;48.684;9.032;2022-09-09T05:52:22;14.60;80.10
37322;DHT22;23697;48.684;9.032;2022-09-09T05:54:51;14.70;79.90
37322;DHT22;23697;48.684;9.032;2022-09-09T05:57:18;14.60;79.90
37322;DHT22;23697;48.684;9.032;2022-09-09T05:59:46;14.70;80.30
37322;DHT22;23697;48.684;9.032;2022-09-09T06:02:12;14.70;80.00
37322;DHT22;23697;48.684;9.032;2022-09-09T06:04:39;14.70;79.60
37322;DHT22;23697;48.684;9.032;2022-09-09T06:07:08;14.70;80.00
37322;DHT22;23697;48.684;9.032;2022-09-09T06:09:35;14.80;80.40
37322;DHT22;23697;48.684;9.032;2022-09-09T06:12:02;14.80;80.50
37322;DHT22;23697;48.684;9.032;2022-09-09T06:14:29;14.90;80.30
37322;DHT22;23697;48.684;9.032;2022-09-09T06:16:57;14.90;80.30
37322;DHT22;23697;48.684;9.032;2022-09-09T06:19:24;14.90;80.30
37322;DHT22;23697;48.684;9.032;2022-09-09T06:21:51;15.00;80.20
37322;DHT22;23697;48.684;9.032;2022-09-09T06:24:20;15.10;79.90
37322;DHT22;23697;48.684;9.032;2022-09-09T06:27:00;15.10;80.00
37322;DHT22;23697;48.684;9.032;2022-09-09T06:29:27;15.10;79.90
37322;DHT22;23697;48.684;9.032;2022-09-09T06:31:54;15.10;79.60
37322;DHT22;23697;48.684;9.032;2022-09-09T06:34:21;15.20;79.90
37322;DHT22;23697;48.684;9.032;2022-09-09T06:36:48;15.20;79.60
37322;DHT22;23697;48.684;9.032;2022-09-09T06:39:15;15.30;79.10
37322;DHT22;23697;48.684;9.032;2022-09-09T06:41:43;15.40;79.40
37322;DHT22;23697;48.684;9.032;2022-09-09T06:44:10;15.40;79.00
37322;DHT22;23697;48.684;9.032;2022-09-09T06:46:38;15.50;79.10
37322;DHT22;23697;48.684;9.032;2022-09-09T06:49:05;15.60;78.30
37322;DHT22;23697;48.684;9.032;2022-09-09T06:51:34;15.60;78.80
37322;DHT22;23697;48.684;9.032;2022-09-09T06:54:03;15.70;78.70
37322;DHT22;23697;48.684;9.032;2022-09-09T06:56:31;15.80;78.00
37322;DHT22;23697;48.684;9.032;2022-09-09T06:59:02;15.90;77.80
37322;DHT22;23697;48.684;9.032;2022-09-09T07:01:31;15.90;77.10
37322;DHT22;23697;48.684;9.032;2022-09-09T07:03:59;16.00;77.10
37322;DHT22;23697;48.684;9.032;2022-09-09T07:06:30;16.10;78.10
37322;DHT22;23697;48.684;9.032;2022-09-09T07:08:58;16.10;78.30
37322;DHT22;23697;48.684;9.032;2022-09-09T07:11:28;16.10;77.70
37322;DHT22;23697;48.684;9.032;2022-09-09T07:13:58;16.20;77.10
37322;DHT22;23697;48.684;9.032;2022-09-09T07:16:27;16.30;77.00
37322;DHT22;23697;48.684;9.032;2022-09-09T07:18:55;16.40;76.40
37322;DHT22;23697;48.684;9.032;2022-09-09T07:21:24;16.40;76.90
37322;DHT22;23697;48.684;9.032;2022-09-09T07:23:51;16.50;77.10
37322;DHT22;23697;48.684;9.032;2022-09-09T07:26:21;16.60;77.10
37322;DHT22;23697;48.684;9.032;2022-09-09T07:28:48;16.70;76.30
37322;DHT22;23697;48.684;9.032;2022-09-09T07:31:17;16.90;75.40
37322;DHT22;23697;48.684;9.032;2022-09-09T07:33:47;17.40;74.50
37322;DHT22;23697;48.684;9.032;2022-09-09T07:36:18;17.70;73.90
37322;DHT22;23697;48.684;9.032;2022-09-09T07:38:51;17.80;72.30
37322;DHT22;23697;48.684;9.032;2022-09-09T07:41:20;17.80;72.30
37322;DHT22;23697;48.684;9.032;2022-09-09T07:43:48;17.70;72.20
37322;DHT22;23697;48.684;9.032;2022-09-09T07:46:17;17.70;72.70
37322;DHT22;23697;48.684;9.032;2022-09-09T07:48:48;17.90;72.90
37322;DHT22;23697;48.684;9.032;2022-09-09T07:51:19;18.10;69.90
37322;DHT22;23697;48.684;9.032;2022-09-09T07:53:48;18.20;72.00
37322;DHT22;23697;48.684;9.032;2022-09-09T07:56:18;18.20;71.50
37322;DHT22;23697;48.684;9.032;2022-09-09T07:58:47;18.30;71.00
37322;DHT22;23697;48.684;9.032;2022-09-09T08:01:16;18.50;71.10
37322;DHT22;23697;48.684;9.032;2022-09-09T08:03:43;18.60;70.30
37322;DHT22;23697;48.684;9.032;2022-09-09T08:06:12;18.90;70.70
37322;DHT22;23697;48.684;9.032;2022-09-09T08:08:39;19.00;69.90
37322;DHT22;23697;48.684;9.032;2022-09-09T08:11:09;19.20;68.90
37322;DHT22;23697;48.684;9.032;2022-09-09T08:13:41;19.50;67.20
37322;DHT22;23697;48.684;9.032;2022-09-09T08:16:11;19.60;68.10
37322;DHT22;23697;48.684;9.032;2022-09-09T08:18:39;19.70;67.60
37322;DHT22;23697;48.684;9.032;2022-09-09T08:24:31;20.20;67.30
37322;DHT22;23697;48.684;9.032;2022-09-09T08:26:58;20.40;63.20
37322;DHT22;23697;48.684;9.032;2022-09-09T08:29:24;20.50;64.10
37322;DHT22;23697;48.684;9.032;2022-09-09T08:31:54;20.50;64.80
37322;DHT22;23697;48.684;9.032;2022-09-09T08:34:23;20.60;63.70
37322;DHT22;23697;48.684;9.032;2022-09-09T08:36:52;20.70;63.70
37322;DHT22;23697;48.684;9.032;2022-09-09T08:40:03;20.80;64.40
37322;DHT22;23697;48.684;9.032;2022-09-09T08:42:35;20.80;61.90
37322;DHT22;23697;48.684;9.032;2022-09-09T08:45:26;20.90;63.20
37322;DHT22;23697;48.684;9.032;2022-09-09T08:48:07;21.10;62.30
37322;DHT22;23697;48.684;9.032;2022-09-09T08:50:36;21.40;62.20
37322;DHT22;23697;48.684;9.032;2022-09-09T08:53:08;21.70;61.10
37322;DHT22;23697;48.684;9.032;2022-09-09T08:55:41;21.60;61.30
37322;DHT22;23697;48.684;9.032;2022-09-09T08:58:15;21.40;62.50
37322;DHT22;23697;48.684;9.032;2022-09-09T09:00:52;21.00;63.50
37322;DHT22;23697;48.684;9.032;2022-09-09T09:03:28;20.90;69.00
37322;DHT22;23697;48.684;9.032;2022-09-09T09:06:04;20.60;69.00
37322;DHT22;23697;48.684;9.032;2022-09-09T09:08:38;19.90;70.90
37322;DHT22;23697;48.684;9.032;2022-09-09T09:11:08;19.40;72.10
37322;DHT22;23697;48.684;9.032;2022-09-09T09:13:43;18.90;71.60
37322;DHT22;23697;48.684;9.032;2022-09-09T09:16:18;18.40;73.20
37322;DHT22;23697;48.684;9.032;2022-09-09T09:18:46;18.00;76.00
37322;DHT22;23697;48.684;9.032;2022-09-09T09:21:16;17.70;77.20
37322;DHT22;23697;48.684;9.032;2022-09-09T09:23:51;17.50;77.40
37322;DHT22;23697;48.684;9.032;2022-09-09T09:26:23;17.50;78.50
37322;DHT22;23697;48.684;9.032;2022-09-09T09:28:55;18.10;80.60
37322;DHT22;23697;48.684;9.032;2022-09-09T09:31:23;18.40;77.10
37322;DHT22;23697;48.684;9.032;2022-09-09T09:33:53;18.70;77.50
37322;DHT22;23697;48.684;9.032;2022-09-09T09:42:53;18.70;80.50
37322;DHT22;23697;48.684;9.032;2022-09-09T09:45:28;19.20;79.80
37322;DHT22;23697;48.684;9.032;2022-09-09T09:48:01;19.60;78.20
37322;DHT22;23697;48.684;9.032;2022-09-09T09:50:30;19.70;75.10
37322;DHT22;23697;48.684;9.032;2022-09-09T09:52:58;20.10;77.10
37322;DHT22;23697;48.684;9.032;2022-09-09T09:55:26;20.50;77.90
37322;DHT22;23697;48.684;9.032;2022-09-09T09:58:02;20.70;75.40
37322;DHT22;23697;48.684;9.032;2022-09-09T10:00:30;20.90;72.20
37322;DHT22;23697;48.684;9.032;2022-09-09T10:02:59;21.10;73.80
37322;DHT22;23697;48.684;9.032;2022-09-09T10:05:28;21.40;73.50
37322;DHT22;23697;48.684;9.032;2022-09-09T10:08:03;21.50;70.80
37322;DHT22;23697;48.684;9.032;2022-09-09T10:10:42;21.70;72.20
37322;DHT22;23697;48.684;9.032;2022-09-09T10:13:17;21.30;68.80
37322;DHT22;23697;48.684;9.032;2022-09-09T10:15:53;21.00;69.20
37322;DHT22;23697;48.684;9.032;2022-09-09T10:18:38;20.60;69.70
37322;DHT22;23697;48.684;9.032;2022-09-09T10:21:19;20.40;70.60
37322;DHT22;23697;48.684;9.032;2022-09-09T10:24:02;20.40;69.90
37322;DHT22;23697;48.684;9.032;2022-09-09T10:26:40;20.30;69.80
37322;DHT22;23697;48.684;9.032;2022-09-09T10:29:24;20.10;71.70
37322;DHT22;23697;48.684;9.032;2022-09-09T10:32:02;19.80;70.80
37322;DHT22;23697;48.684;9.032;2022-09-09T10:34:43;19.60;72.90
37322;DHT22;23697;48.684;9.032;2022-09-09T10:37:27;19.60;73.30
37322;DHT22;23697;48.684;9.032;2022-09-09T10:40:04;19.60;74.00
37322;DHT22;23697;48.684;9.032;2022-09-09T10:42:38;20.10;73.30
37322;DHT22;23697;48.684;9.032;2022-09-09T10:45:17;20.70;72.30
37322;DHT22;23697;48.684;9.032;2022-09-09T10:47:59;20.70;67.70
37322;DHT22;23697;48.684;9.032;2022-09-09T10:53:37;20.60;68.90
37322;DHT22;23697;48.684;9.032;2022-09-09T10:56:33;20.60;68.70
37322;DHT22;23697;48.684;9.032;2022-09-09T10:59:57;21.40;68.40
37322;DHT22;23697;48.684;9.032;2022-09-09T11:05:59;21.50;62.10
37322;DHT22;23697;48.684;9.032;2022-09-09T11:08:29;21.20;63.20
37322;DHT22;23697;48.684;9.032;2022-09-09T11:11:01;20.80;58.60
37322;DHT22;23697;48.684;9.032;2022-09-09T11:13:34;20.40;60.20
37322;DHT22;23697;48.684;9.032;2022-09-09T11:16:11;19.90;59.60
37322;DHT22;23697;48.684;9.032;2022-09-09T11:18:41;19.50;61.70
37322;DHT22;23697;48.684;9.032;2022-09-09T11:21:14;19.20;62.10
37322;DHT22;23697;48.684;9.032;2022-09-09T11:23:48;19.10;61.80
37322;DHT22;23697;48.684;9.032;2022-09-09T11:26:21;18.90;63.90
37322;DHT22;23697;48.684;9.032;2022-09-09T11:28:58;18.80;64.20
37322;DHT22;23697;48.684;9.032;2022-09-09T11:31:39;18.90;65.70
37322;DHT22;23697;48.684;9.032;2022-09-09T11:34:31;18.70;64.90
37322;DHT22;23697;48.684;9.032;2022-09-09T11:37:26;18.60;63.00
37322;DHT22;23697;48.684;9.032;2022-09-09T11:40:08;18.40;63.10
37322;DHT22;23697;48.684;9.032;2022-09-09T11:42:41;18.20;65.30
37322;DHT22;23697;48.684;9.032;2022-09-09T11:45:20;18.20;66.00
37322;DHT22;23697;48.684;9.032;2022-09-09T11:47:54;18.20;66.70
37322;DHT22;23697;48.684;9.032;2022-09-09T11:50:30;18.20;66.20
37322;DHT22;23697;48.684;9.032;2022-09-09T11:53:21;18.30;65.80
37322;DHT22;23697;48.684;9.032;2022-09-09T11:56:07;18.50;64.90
37322;DHT22;23697;48.684;9.032;2022-09-09T11:58:40;18.70;64.60
37322;DHT22;23697;48.684;9.032;2022-09-09T12:01:39;19.00;64.00
37322;DHT22;23697;48.684;9.032;2022-09-09T12:07:25;19.10;61.60
37322;DHT22;23697;48.684;9.032;2022-09-09T12:09:59;19.40;62.90
37322;DHT22;23697;48.684;9.032;2022-09-09T12:12:32;19.60;62.40
37322;DHT22;23697;48.684;9.032;2022-09-09T12:15:23;20.10;61.10
37322;DHT22;23697;48.684;9.032;2022-09-09T12:17:54;20.40;60.20
37322;DHT22;23697;48.684;9.032;2022-09-09T12:20:32;20.40;56.20
37322;DHT22;23697;48.684;9.032;2022-09-09T12:23:15;20.50;57.60
37322;DHT22;23697;48.684;9.032;2022-09-09T12:26:07;20.60;57.60
37322;DHT22;23697;48.684;9.032;2022-09-09T12:28:44;21.00;55.10
37322;DHT22;23697;48.684;9.032;2022-09-09T12:31:19;21.30;57.50
37322;DHT22;23697;48.684;9.032;2022-09-09T12:33:48;21.30;55.90
37322;DHT22;23697;48.684;9.032;2022-09-09T12:36:17;20.90;56.40
37322;DHT22;23697;48.684;9.032;2022-09-09T12:38:45;20.60;58.30
37322;DHT22;23697;48.684;9.032;2022-09-09T12:41:22;20.20;58.40
37322;DHT22;23697;48.684;9.032;2022-09-09T12:43:50;20.10;59.30
37322;DHT22;23697;48.684;9.032;2022-09-09T12:46:23;19.90;60.80
37322;DHT22;23697;48.684;9.032;2022-09-09T12:48:53;19.80;61.60
37322;DHT22;23697;48.684;9.032;2022-09-09T12:51:24;20.10;61.90
37322;DHT22;23697;48.684;9.032;2022-09-09T12:53:52;20.00;61.40
37322;DHT22;23697;48.684;9.032;2022-09-09T12:56:23;19.80;58.20
37322;DHT22;23697;48.684;9.032;2022-09-09T12:58:53;19.70;59.50
37322;DHT22;23697;48.684;9.032;2022-09-09T13:01:22;19.90;59.60
37322;DHT22;23697;48.684;9.032;2022-09-09T13:03:50;19.90;58.50
37322;DHT22;23697;48.684;9.032;2022-09-09T13:06:21;20.00;58.50
37322;DHT22;23697;48.684;9.032;2022-09-09T13:08:49;20.30;56.80
37322;DHT22;23697;48.684;9.032;2022-09-09T13:11:19;20.70;56.20
37322;DHT22;23697;48.684;9.032;2022-09-09T13:13:53;21.10;55.80
37322;DHT22;23697;48.684;9.032;2022-09-09T13:16:23;21.20;54.30
37322;DHT22;23697;48.684;9.032;2022-09-09T13:18:52;21.10;53.70
37322;DHT22;23697;48.684;9.032;2022-09-09T13:21:31;21.20;52.00
37322;DHT22;23697;48.684;9.032;2022-09-09T13:23:58;21.40;51.70
37322;DHT22;23697;48.684;9.032;2022-09-09T13:26:29;21.60;52.70
37322;DHT22;23697;48.684;9.032;2022-09-09T13:29:08;21.70;51.90
37322;DHT22;23697;48.684;9.032;2022-09-09T13:31:42;21.50;51.70
37322;DHT22;23697;48.684;9.032;2022-09-09T13:34:12;21.20;53.80
37322;DHT22;23697;48.684;9.032;2022-09-09T13:36:40;21.30;54.10
37322;DHT22;23697;48.684;9.032;2022-09-09T13:39:15;21.60;54.00
37322;DHT22;23697;48.684;9.032;2022-09-09T13:41:44;22.10;51.10
37322;DHT22;23697;48.684;9.032;2022-09-09T13:44:20;22.00;51.30
37322;DHT22;23697;48.684;9.032;2022-09-09T13:47:00;22.10;48.70
37322;DHT22;23697;48.684;9.032;2022-09-09T13:49:29;22.10;49.00
37322;DHT22;23697;48.684;9.032;2022-09-09T13:52:14;22.00;48.90
37322;DHT22;23697;48.684;9.032;2022-09-09T13:54:47;22.00;48.30
37322;DHT22;23697;48.684;9.032;2022-09-09T13:57:21;21.60;49.50
37322;DHT22;23697;48.684;9.032;2022-09-09T13:59:55;21.40;48.70
37322;DHT22;23697;48.684;9.032;2022-09-09T14:02:21;21.30;49.80
37322;DHT22;23697;48.684;9.032;2022-09-09T14:04:49;21.40;48.30
37322;DHT22;23697;48.684;9.032;2022-09-09T14:07:20;21.60;49.80
37322;DHT22;23697;48.684;9.032;2022-09-09T14:09:47;21.60;48.40
37322;DHT22;23697;48.684;9.032;2022-09-09T14:12:17;21.90;48.70
37322;DHT22;23697;48.684;9.032;2022-09-09T14:14:59;22.10;46.50
37322;DHT22;23697;48.684;9.032;2022-09-09T14:17:26;22.40;46.80
37322;DHT22;23697;48.684;9.032;2022-09-09T14:20:11;22.40;45.30
37322;DHT22;23697;48.684;9.032;2022-09-09T14:22:41;22.40;46.10
37322;DHT22;23697;48.684;9.032;2022-09-09T14:25:09;22.30;46.80
37322;DHT22;23697;48.684;9.032;2022-09-09T14:27:36;22.20;47.70
37322;DHT22;23697;48.684;9.032;2022-09-09T14:30:08;22.10;46.00
37322;DHT22;23697;48.684;9.032;2022-09-09T14:32:35;21.70;45.90
37322;DHT22;23697;48.684;9.032;2022-09-09T14:35:02;21.30;46.90
37322;DHT22;23697;48.684;9.032;2022-09-09T14:37:29;21.30;46.70
37322;DHT22;23697;48.684;9.032;2022-09-09T14:39:56;21.20;45.90
37322;DHT22;23697;48.684;9.032;2022-09-09T14:42:23;21.40;46.90
37322;DHT22;23697;48.684;9.032;2022-09-09T14:44:51;21.60;46.60
37322;DHT22;23697;48.684;9.032;2022-09-09T14:47:19;21.80;46.50
37322;DHT22;23697;48.684;9.032;2022-09-09T14:49:46;21.90;46.60
37322;DHT22;23697;48.684;9.032;2022-09-09T14:52:15;22.00;45.80
37322;DHT22;23697;48.684;9.032;2022-09-09T14:54:41;22.00;44.60
37322;DHT22;23697;48.684;9.032;2022-09-09T14:57:08;22.00;45.70
37322;DHT22;23697;48.684;9.032;2022-09-09T14:59:35;22.00;45.60
37322;DHT22;23697;48.684;9.032;2022-09-09T15:02:02;21.60;46.10
37322;DHT22;23697;48.684;9.032;2022-09-09T15:04:31;21.20;48.30
37322;DHT22;23697;48.684;9.032;2022-09-09T15:06:58;21.10;48.20
37322;DHT22;23697;48.684;9.032;2022-09-09T15:09:24;21.30;48.80
37322;DHT22;23697;48.684;9.032;2022-09-09T15:11:51;21.60;48.00
37322;DHT22;23697;48.684;9.032;2022-09-09T15:14:18;21.60;47.40
37322;DHT22;23697;48.684;9.032;2022-09-09T15:16:45;21.80;48.10
37322;DHT22;23697;48.684;9.032;2022-09-09T15:19:12;21.90;47.20
37322;DHT22;23697;48.684;9.032;2022-09-09T15:21:40;22.00;47.90
37322;DHT22;23697;48.684;9.032;2022-09-09T15:24:07;22.20;47.80
37322;DHT22;23697;48.684;9.032;2022-09-09T15:26:34;22.30;48.40
37322;DHT22;23697;48.684;9.032;2022-09-09T15:29:04;22.40;48.00
37322;DHT22;23697;48.684;9.032;2022-09-09T15:31:31;22.60;46.80
37322;DHT22;23697;48.684;9.032;2022-09-09T15:34:00;22.60;46.90
37322;DHT22;23697;48.684;9.032;2022-09-09T15:36:28;22.10;46.40
37322;DHT22;23697;48.684;9.032;2022-09-09T15:38:59;21.50;46.90
37322;DHT22;23697;48.684;9.032;2022-09-09T15:41:27;21.10;47.00
37322;DHT22;23697;48.684;9.032;2022-09-09T15:43:55;20.80;47.10
37322;DHT22;23697;48.684;9.032;2022-09-09T15:46:26;20.50;49.40
37322;DHT22;23697;48.684;9.032;2022-09-09T15:48:54;20.40;50.70
37322;DHT22;23697;48.684;9.032;2022-09-09T15:51:22;20.10;51.30
37322;DHT22;23697;48.684;9.032;2022-09-09T15:53:54;20.00;50.30
37322;DHT22;23697;48.684;9.032;2022-09-09T15:56:23;19.90;50.40
37322;DHT22;23697;48.684;9.032;2022-09-09T15:58:50;19.80;51.00
37322;DHT22;23697;48.684;9.032;2022-09-09T16:01:18;19.80;51.80
37322;DHT22;23697;48.684;9.032;2022-09-09T16:03:45;19.80;52.40
37322;DHT22;23697;48.684;9.032;2022-09-09T16:06:13;19.70;51.70
37322;DHT22;23697;48.684;9.032;2022-09-09T16:08:43;19.60;51.00
37322;DHT22;23697;48.684;9.032;2022-09-09T16:11:11;19.50;52.40
37322;DHT22;23697;48.684;9.032;2022-09-09T16:13:42;19.40;52.60
37322;DHT22;23697;48.684;9.032;2022-09-09T16:16:11;19.30;52.50